sensor_id;sensor_type;location;lat;lon;timestamp;P1;durP1;ratioP1;P2;durP2;ratioP2
35743;SDS011;21867;52.012;4.324;2022-11-24T00:00:19;19.67;;;5.50;;
35743;SDS011;21867;52.012;4.324;2022-11-24T00:02:46;18.00;;;5.07;;
35743;SDS011;21867;52.012;4.324;2022-11-24T00:05:14;14.83;;;4.77;;
35743;SDS011;21867;52.012;4.324;2022-11-24T00:07:41;20.80;;;5.17;;
35743;SDS011;21867;52.012;4.324;2022-11-24T00:10:09;24.47;;;6.30;;
35743;SDS011;21867;52.012;4.324;2022-11-24T00:12:36;17.83;;;5.77;;
35743;SDS011;21867;52.012;4.324;2022-11-24T00:15:04;18.33;;;5.73;;
35743;SDS011;21867;52.012;4.324;2022-11-24T00:17:33;17.93;;;5.37;;
35743;SDS011;21867;52.012;4.324;2022-11-24T00:20:00;15.23;;;4.70;;
35743;SDS011;21867;52.012;4.324;2022-11-24T00:22:27;14.00;;;4.60;;
35743;SDS011;21867;52.012;4.324;2022-11-24T00:24:54;16.83;;;5.40;;
35743;SDS011;21867;52.012;4.324;2022-11-24T00:27:22;23.00;;;5.53;;
35743;SDS011;21867;52.012;4.324;2022-11-24T00:29:49;17.67;;;4.40;;
35743;SDS011;21867;52.012;4.324;2022-11-24T00:32:17;14.70;;;4.13;;
35743;SDS011;21867;52.012;4.324;2022-11-24T00:34:46;14.97;;;5.30;;
35743;SDS011;21867;52.012;4.324;2022-11-24T00:37:25;14.10;;;4.90;;
35743;SDS011;21867;52.012;4.324;2022-11-24T00:39:58;17.03;;;4.57;;
35743;SDS011;21867;52.012;4.324;2022-11-24T00:42:25;11.90;;;4.00;;
35743;SDS011;21867;52.012;4.324;2022-11-24T00:44:53;27.90;;;5.07;;
35743;SDS011;21867;52.012;4.324;2022-11-24T00:47:20;18.43;;;4.70;;
35743;SDS011;21867;52.012;4.324;2022-11-24T00:49:49;22.03;;;5.67;;
35743;SDS011;21867;52.012;4.324;2022-11-24T00:52:17;12.77;;;4.43;;
35743;SDS011;21867;52.012;4.324;2022-11-24T00:54:44;14.03;;;3.70;;
35743;SDS011;21867;52.012;4.324;2022-11-24T00:57:11;9.37;;;3.97;;
35743;SDS011;21867;52.012;4.324;2022-11-24T00:59:39;15.23;;;4.30;;
35743;SDS011;21867;52.012;4.324;2022-11-24T01:02:06;14.47;;;3.77;;
35743;SDS011;21867;52.012;4.324;2022-11-24T01:04:34;15.97;;;4.50;;
35743;SDS011;21867;52.012;4.324;2022-11-24T01:09:46;11.40;;;3.43;;
35743;SDS011;21867;52.012;4.324;2022-11-24T01:12:13;11.37;;;4.00;;
35743;SDS011;21867;52.012;4.324;2022-11-24T01:14:40;13.13;;;3.90;;
35743;SDS011;21867;52.012;4.324;2022-11-24T01:17:08;15.20;;;4.47;;
35743;SDS011;21867;52.012;4.324;2022-11-24T01:19:35;12.53;;;3.73;;
35743;SDS011;21867;52.012;4.324;2022-11-24T01:22:03;11.30;;;4.93;;
35743;SDS011;21867;52.012;4.324;2022-11-24T01:24:30;10.07;;;4.33;;
35743;SDS011;21867;52.012;4.324;2022-11-24T01:26:59;16.23;;;4.30;;
35743;SDS011;21867;52.012;4.324;2022-11-24T01:29:27;15.87;;;5.50;;
35743;SDS011;21867;52.012;4.324;2022-11-24T01:31:54;14.13;;;4.23;;
35743;SDS011;21867;52.012;4.324;2022-11-24T01:34:22;13.17;;;4.30;;
35743;SDS011;21867;52.012;4.324;2022-11-24T01:39:50;13.00;;;4.83;;
35743;SDS011;21867;52.012;4.324;2022-11-24T01:42:24;13.90;;;4.80;;
35743;SDS011;21867;52.012;4.324;2022-11-24T01:45:24;10.60;;;3.90;;
35743;SDS011;21867;52.012;4.324;2022-11-24T01:47:40;14.73;;;4.33;;
35743;SDS011;21867;52.012;4.324;2022-11-24T01:50:08;11.17;;;4.43;;
35743;SDS011;21867;52.012;4.324;2022-11-24T01:52:36;13.83;;;5.20;;
35743;SDS011;21867;52.012;4.324;2022-11-24T01:55:05;15.50;;;4.53;;
35743;SDS011;21867;52.012;4.324;2022-11-24T01:57:36;14.23;;;4.13;;
35743;SDS011;21867;52.012;4.324;2022-11-24T02:00:05;15.73;;;4.73;;
35743;SDS011;21867;52.012;4.324;2022-11-24T02:02:42;14.93;;;5.20;;
35743;SDS011;21867;52.012;4.324;2022-11-24T02:05:11;15.73;;;5.00;;
35743;SDS011;21867;52.012;4.324;2022-11-24T02:07:39;13.17;;;4.40;;
35743;SDS011;21867;52.012;4.324;2022-11-24T02:10:07;15.53;;;4.37;;
35743;SDS011;21867;52.012;4.324;2022-11-24T02:12:37;9.07;;;4.30;;
35743;SDS011;21867;52.012;4.324;2022-11-24T02:15:05;12.63;;;4.03;;
35743;SDS011;21867;52.012;4.324;2022-11-24T02:17:34;7.17;;;3.43;;
35743;SDS011;21867;52.012;4.324;2022-11-24T02:20:02;9.23;;;3.33;;
35743;SDS011;21867;52.012;4.324;2022-11-24T02:22:36;11.00;;;3.87;;
35743;SDS011;21867;52.012;4.324;2022-11-24T02:27:50;8.83;;;3.13;;
35743;SDS011;21867;52.012;4.324;2022-11-24T02:30:19;11.33;;;3.17;;
35743;SDS011;21867;52.012;4.324;2022-11-24T02:32:47;9.90;;;3.00;;
35743;SDS011;21867;52.012;4.324;2022-11-24T02:35:14;6.20;;;2.80;;
35743;SDS011;21867;52.012;4.324;2022-11-24T02:37:42;8.53;;;3.80;;
35743;SDS011;21867;52.012;4.324;2022-11-24T02:40:15;5.33;;;3.00;;
35743;SDS011;21867;52.012;4.324;2022-11-24T02:42:56;7.73;;;2.57;;
35743;SDS011;21867;52.012;4.324;2022-11-24T02:45:30;6.30;;;2.80;;
35743;SDS011;21867;52.012;4.324;2022-11-24T02:47:57;8.07;;;3.13;;
35743;SDS011;21867;52.012;4.324;2022-11-24T02:50:25;4.27;;;2.00;;
35743;SDS011;21867;52.012;4.324;2022-11-24T02:52:52;7.30;;;2.57;;
35743;SDS011;21867;52.012;4.324;2022-11-24T02:55:20;3.80;;;2.37;;
35743;SDS011;21867;52.012;4.324;2022-11-24T02:57:48;7.77;;;2.30;;
35743;SDS011;21867;52.012;4.324;2022-11-24T03:00:17;7.53;;;3.00;;
35743;SDS011;21867;52.012;4.324;2022-11-24T03:02:45;3.83;;;1.93;;
35743;SDS011;21867;52.012;4.324;2022-11-24T03:05:13;2.17;;;1.90;;
35743;SDS011;21867;52.012;4.324;2022-11-24T03:07:43;7.03;;;2.77;;
35743;SDS011;21867;52.012;4.324;2022-11-24T03:10:11;8.57;;;3.57;;
35743;SDS011;21867;52.012;4.324;2022-11-24T03:12:38;10.47;;;3.60;;
35743;SDS011;21867;52.012;4.324;2022-11-24T03:15:11;5.57;;;2.50;;
35743;SDS011;21867;52.012;4.324;2022-11-24T03:17:40;6.73;;;2.73;;
35743;SDS011;21867;52.012;4.324;2022-11-24T03:20:08;8.93;;;3.40;;
35743;SDS011;21867;52.012;4.324;2022-11-24T03:22:35;5.37;;;2.80;;
35743;SDS011;21867;52.012;4.324;2022-11-24T03:25:09;11.07;;;3.50;;
35743;SDS011;21867;52.012;4.324;2022-11-24T03:31:19;8.37;;;2.87;;
35743;SDS011;21867;52.012;4.324;2022-11-24T03:33:48;5.20;;;2.50;;
35743;SDS011;21867;52.012;4.324;2022-11-24T03:36:15;8.37;;;3.27;;
35743;SDS011;21867;52.012;4.324;2022-11-24T03:38:43;12.37;;;3.93;;
35743;SDS011;21867;52.012;4.324;2022-11-24T03:41:10;7.67;;;4.20;;
35743;SDS011;21867;52.012;4.324;2022-11-24T03:43:38;9.77;;;3.40;;
35743;SDS011;21867;52.012;4.324;2022-11-24T03:46:09;7.13;;;4.30;;
35743;SDS011;21867;52.012;4.324;2022-11-24T03:48:37;8.13;;;3.67;;
35743;SDS011;21867;52.012;4.324;2022-11-24T03:51:06;11.00;;;3.57;;
35743;SDS011;21867;52.012;4.324;2022-11-24T03:53:33;6.30;;;2.70;;
35743;SDS011;21867;52.012;4.324;2022-11-24T03:58:50;3.80;;;2.40;;
35743;SDS011;21867;52.012;4.324;2022-11-24T04:01:18;3.67;;;2.07;;
35743;SDS011;21867;52.012;4.324;2022-11-24T04:03:45;3.60;;;1.90;;
35743;SDS011;21867;52.012;4.324;2022-11-24T04:06:14;4.30;;;2.20;;
35743;SDS011;21867;52.012;4.324;2022-11-24T04:08:41;2.53;;;1.87;;
35743;SDS011;21867;52.012;4.324;2022-11-24T04:11:09;2.77;;;2.10;;
35743;SDS011;21867;52.012;4.324;2022-11-24T04:13:36;6.00;;;2.13;;
35743;SDS011;21867;52.012;4.324;2022-11-24T04:16:04;5.93;;;2.13;;
35743;SDS011;21867;52.012;4.324;2022-11-24T04:18:31;5.77;;;2.10;;
35743;SDS011;21867;52.012;4.324;2022-11-24T04:20:58;4.87;;;2.30;;
35743;SDS011;21867;52.012;4.324;2022-11-24T04:23:27;5.57;;;2.80;;
35743;SDS011;21867;52.012;4.324;2022-11-24T04:25:54;3.83;;;2.20;;
35743;SDS011;21867;52.012;4.324;2022-11-24T04:28:22;5.57;;;1.90;;
35743;SDS011;21867;52.012;4.324;2022-11-24T04:31:15;3.20;;;2.10;;
35743;SDS011;21867;52.012;4.324;2022-11-24T04:33:42;3.53;;;2.10;;
35743;SDS011;21867;52.012;4.324;2022-11-24T04:36:10;3.13;;;1.90;;
35743;SDS011;21867;52.012;4.324;2022-11-24T04:38:38;2.67;;;1.80;;
35743;SDS011;21867;52.012;4.324;2022-11-24T04:41:25;3.43;;;2.00;;
35743;SDS011;21867;52.012;4.324;2022-11-24T04:43:54;2.90;;;1.70;;
35743;SDS011;21867;52.012;4.324;2022-11-24T04:46:21;3.10;;;1.90;;
35743;SDS011;21867;52.012;4.324;2022-11-24T04:48:48;3.03;;;1.80;;
35743;SDS011;21867;52.012;4.324;2022-11-24T04:51:16;3.20;;;1.97;;
35743;SDS011;21867;52.012;4.324;2022-11-24T04:53:44;2.00;;;1.63;;
35743;SDS011;21867;52.012;4.324;2022-11-24T04:56:32;3.67;;;1.60;;
35743;SDS011;21867;52.012;4.324;2022-11-24T04:59:00;4.63;;;2.20;;
35743;SDS011;21867;52.012;4.324;2022-11-24T05:01:33;6.93;;;2.17;;
35743;SDS011;21867;52.012;4.324;2022-11-24T05:04:01;5.83;;;1.80;;
35743;SDS011;21867;52.012;4.324;2022-11-24T05:06:28;3.43;;;1.90;;
35743;SDS011;21867;52.012;4.324;2022-11-24T05:08:57;4.50;;;2.03;;
35743;SDS011;21867;52.012;4.324;2022-11-24T05:11:24;2.30;;;1.60;;
35743;SDS011;21867;52.012;4.324;2022-11-24T05:13:51;5.93;;;2.67;;
35743;SDS011;21867;52.012;4.324;2022-11-24T05:16:19;5.93;;;2.03;;
35743;SDS011;21867;52.012;4.324;2022-11-24T05:18:46;2.10;;;1.70;;
35743;SDS011;21867;52.012;4.324;2022-11-24T05:21:13;2.07;;;1.50;;
35743;SDS011;21867;52.012;4.324;2022-11-24T05:23:41;3.90;;;2.13;;
35743;SDS011;21867;52.012;4.324;2022-11-24T05:26:09;4.00;;;2.33;;
35743;SDS011;21867;52.012;4.324;2022-11-24T05:28:38;4.27;;;2.23;;
35743;SDS011;21867;52.012;4.324;2022-11-24T05:31:05;4.90;;;2.10;;
35743;SDS011;21867;52.012;4.324;2022-11-24T05:33:32;1.90;;;1.70;;
35743;SDS011;21867;52.012;4.324;2022-11-24T05:36:00;6.73;;;2.70;;
35743;SDS011;21867;52.012;4.324;2022-11-24T05:38:28;3.20;;;2.20;;
35743;SDS011;21867;52.012;4.324;2022-11-24T05:40:58;4.90;;;2.07;;
35743;SDS011;21867;52.012;4.324;2022-11-24T05:43:27;6.93;;;2.53;;
35743;SDS011;21867;52.012;4.324;2022-11-24T05:46:34;5.23;;;2.70;;
35743;SDS011;21867;52.012;4.324;2022-11-24T05:49:01;3.10;;;1.80;;
35743;SDS011;21867;52.012;4.324;2022-11-24T05:51:29;4.43;;;2.50;;
35743;SDS011;21867;52.012;4.324;2022-11-24T05:54:05;6.60;;;2.93;;
35743;SDS011;21867;52.012;4.324;2022-11-24T05:56:40;3.70;;;2.30;;
35743;SDS011;21867;52.012;4.324;2022-11-24T05:59:09;2.90;;;2.40;;
35743;SDS011;21867;52.012;4.324;2022-11-24T06:01:36;7.80;;;2.70;;
35743;SDS011;21867;52.012;4.324;2022-11-24T06:04:04;4.53;;;2.60;;
35743;SDS011;21867;52.012;4.324;2022-11-24T06:06:31;7.40;;;2.90;;
35743;SDS011;21867;52.012;4.324;2022-11-24T06:08:58;3.90;;;2.30;;
35743;SDS011;21867;52.012;4.324;2022-11-24T06:11:25;2.30;;;1.90;;
35743;SDS011;21867;52.012;4.324;2022-11-24T06:13:53;3.03;;;2.40;;
35743;SDS011;21867;52.012;4.324;2022-11-24T06:16:21;3.73;;;2.17;;
35743;SDS011;21867;52.012;4.324;2022-11-24T06:18:49;3.30;;;2.53;;
35743;SDS011;21867;52.012;4.324;2022-11-24T06:21:16;4.97;;;2.67;;
35743;SDS011;21867;52.012;4.324;2022-11-24T06:23:45;2.77;;;2.10;;
35743;SDS011;21867;52.012;4.324;2022-11-24T06:26:14;4.67;;;2.50;;
35743;SDS011;21867;52.012;4.324;2022-11-24T06:28:50;4.40;;;2.43;;
35743;SDS011;21867;52.012;4.324;2022-11-24T06:31:18;4.37;;;2.37;;
35743;SDS011;21867;52.012;4.324;2022-11-24T06:33:46;3.20;;;2.37;;
35743;SDS011;21867;52.012;4.324;2022-11-24T06:36:14;3.03;;;2.30;;
35743;SDS011;21867;52.012;4.324;2022-11-24T06:38:41;3.87;;;2.47;;
35743;SDS011;21867;52.012;4.324;2022-11-24T06:41:09;4.10;;;2.93;;
35743;SDS011;21867;52.012;4.324;2022-11-24T06:46:32;3.13;;;2.37;;
35743;SDS011;21867;52.012;4.324;2022-11-24T06:49:01;5.57;;;3.50;;
35743;SDS011;21867;52.012;4.324;2022-11-24T06:51:28;3.50;;;2.67;;
35743;SDS011;21867;52.012;4.324;2022-11-24T06:53:56;8.13;;;2.93;;
35743;SDS011;21867;52.012;4.324;2022-11-24T06:56:23;6.07;;;3.57;;
35743;SDS011;21867;52.012;4.324;2022-11-24T06:59:12;7.50;;;3.20;;
35743;SDS011;21867;52.012;4.324;2022-11-24T07:01:49;3.60;;;2.70;;
35743;SDS011;21867;52.012;4.324;2022-11-24T07:04:18;11.27;;;4.00;;
35743;SDS011;21867;52.012;4.324;2022-11-24T07:06:45;5.17;;;3.13;;
35743;SDS011;21867;52.012;4.324;2022-11-24T07:09:13;10.23;;;3.90;;
35743;SDS011;21867;52.012;4.324;2022-11-24T07:11:40;5.90;;;2.70;;
35743;SDS011;21867;52.012;4.324;2022-11-24T07:14:07;7.60;;;3.30;;
35743;SDS011;21867;52.012;4.324;2022-11-24T07:16:35;3.73;;;2.50;;
35743;SDS011;21867;52.012;4.324;2022-11-24T07:19:02;6.70;;;2.97;;
35743;SDS011;21867;52.012;4.324;2022-11-24T07:21:31;3.83;;;3.03;;
35743;SDS011;21867;52.012;4.324;2022-11-24T07:23:58;7.67;;;2.97;;
35743;SDS011;21867;52.012;4.324;2022-11-24T07:26:25;9.27;;;3.80;;
35743;SDS011;21867;52.012;4.324;2022-11-24T07:28:53;5.03;;;2.40;;
35743;SDS011;21867;52.012;4.324;2022-11-24T07:31:21;5.87;;;2.43;;
35743;SDS011;21867;52.012;4.324;2022-11-24T07:33:48;6.50;;;2.43;;
35743;SDS011;21867;52.012;4.324;2022-11-24T07:36:16;3.73;;;2.63;;
35743;SDS011;21867;52.012;4.324;2022-11-24T07:38:45;6.73;;;2.53;;
35743;SDS011;21867;52.012;4.324;2022-11-24T07:41:16;10.50;;;3.03;;
35743;SDS011;21867;52.012;4.324;2022-11-24T07:43:43;7.20;;;3.53;;
35743;SDS011;21867;52.012;4.324;2022-11-24T07:46:12;8.63;;;2.93;;
35743;SDS011;21867;52.012;4.324;2022-11-24T07:48:39;6.57;;;2.50;;
35743;SDS011;21867;52.012;4.324;2022-11-24T07:51:07;5.50;;;2.57;;
35743;SDS011;21867;52.012;4.324;2022-11-24T07:53:34;8.17;;;4.07;;
35743;SDS011;21867;52.012;4.324;2022-11-24T07:56:04;7.13;;;3.73;;
35743;SDS011;21867;52.012;4.324;2022-11-24T07:58:32;5.87;;;3.07;;
35743;SDS011;21867;52.012;4.324;2022-11-24T08:00:59;9.50;;;3.83;;
35743;SDS011;21867;52.012;4.324;2022-11-24T08:03:26;10.67;;;3.30;;
35743;SDS011;21867;52.012;4.324;2022-11-24T08:05:56;9.40;;;3.00;;
35743;SDS011;21867;52.012;4.324;2022-11-24T08:08:44;12.80;;;3.30;;
35743;SDS011;21867;52.012;4.324;2022-11-24T08:11:13;8.40;;;3.47;;
35743;SDS011;21867;52.012;4.324;2022-11-24T08:13:41;5.93;;;2.60;;
35743;SDS011;21867;52.012;4.324;2022-11-24T08:16:09;11.83;;;4.23;;
35743;SDS011;21867;52.012;4.324;2022-11-24T08:18:36;10.13;;;3.30;;
35743;SDS011;21867;52.012;4.324;2022-11-24T08:21:04;8.60;;;3.03;;
35743;SDS011;21867;52.012;4.324;2022-11-24T08:23:31;10.53;;;3.23;;
35743;SDS011;21867;52.012;4.324;2022-11-24T08:26:01;11.87;;;3.30;;
35743;SDS011;21867;52.012;4.324;2022-11-24T08:28:31;10.17;;;3.67;;
35743;SDS011;21867;52.012;4.324;2022-11-24T08:31:01;5.87;;;3.10;;
35743;SDS011;21867;52.012;4.324;2022-11-24T08:36:17;9.13;;;3.20;;
35743;SDS011;21867;52.012;4.324;2022-11-24T08:38:44;17.93;;;4.93;;
35743;SDS011;21867;52.012;4.324;2022-11-24T08:41:12;10.07;;;3.20;;
35743;SDS011;21867;52.012;4.324;2022-11-24T08:43:41;13.00;;;3.50;;
35743;SDS011;21867;52.012;4.324;2022-11-24T08:46:11;9.10;;;3.57;;
35743;SDS011;21867;52.012;4.324;2022-11-24T08:48:46;11.57;;;4.30;;
35743;SDS011;21867;52.012;4.324;2022-11-24T08:54:14;10.20;;;3.60;;
35743;SDS011;21867;52.012;4.324;2022-11-24T08:56:41;12.90;;;4.13;;
35743;SDS011;21867;52.012;4.324;2022-11-24T08:59:11;14.43;;;3.83;;
35743;SDS011;21867;52.012;4.324;2022-11-24T09:01:38;11.80;;;3.63;;
35743;SDS011;21867;52.012;4.324;2022-11-24T09:04:06;10.43;;;3.80;;
35743;SDS011;21867;52.012;4.324;2022-11-24T09:06:33;11.43;;;3.97;;
35743;SDS011;21867;52.012;4.324;2022-11-24T09:09:01;14.50;;;3.63;;
35743;SDS011;21867;52.012;4.324;2022-11-24T09:11:28;12.63;;;4.80;;
35743;SDS011;21867;52.012;4.324;2022-11-24T09:13:56;14.33;;;3.40;;
35743;SDS011;21867;52.012;4.324;2022-11-24T09:16:25;9.97;;;2.87;;
35743;SDS011;21867;52.012;4.324;2022-11-24T09:18:53;9.70;;;3.40;;
35743;SDS011;21867;52.012;4.324;2022-11-24T09:21:23;14.77;;;3.67;;
35743;SDS011;21867;52.012;4.324;2022-11-24T09:23:59;14.17;;;3.60;;
35743;SDS011;21867;52.012;4.324;2022-11-24T09:26:33;13.93;;;3.73;;
35743;SDS011;21867;52.012;4.324;2022-11-24T09:29:02;16.27;;;3.43;;
35743;SDS011;21867;52.012;4.324;2022-11-24T09:31:32;10.43;;;3.77;;
35743;SDS011;21867;52.012;4.324;2022-11-24T09:34:00;13.13;;;4.20;;
35743;SDS011;21867;52.012;4.324;2022-11-24T09:36:27;14.57;;;5.00;;
35743;SDS011;21867;52.012;4.324;2022-11-24T09:38:55;12.57;;;3.97;;
35743;SDS011;21867;52.012;4.324;2022-11-24T09:41:33;11.60;;;4.10;;
35743;SDS011;21867;52.012;4.324;2022-11-24T09:44:06;15.50;;;4.43;;
35743;SDS011;21867;52.012;4.324;2022-11-24T09:46:38;19.00;;;4.13;;
35743;SDS011;21867;52.012;4.324;2022-11-24T09:49:09;13.10;;;4.00;;
35743;SDS011;21867;52.012;4.324;2022-11-24T09:51:38;8.83;;;3.60;;
35743;SDS011;21867;52.012;4.324;2022-11-24T09:54:08;12.80;;;4.40;;
35743;SDS011;21867;52.012;4.324;2022-11-24T09:56:39;14.87;;;4.30;;
35743;SDS011;21867;52.012;4.324;2022-11-24T09:59:12;14.43;;;3.90;;
35743;SDS011;21867;52.012;4.324;2022-11-24T10:01:44;18.80;;;5.40;;
35743;SDS011;21867;52.012;4.324;2022-11-24T10:04:13;12.87;;;5.00;;
35743;SDS011;21867;52.012;4.324;2022-11-24T10:06:43;13.33;;;4.13;;
35743;SDS011;21867;52.012;4.324;2022-11-24T10:09:17;15.23;;;4.27;;
35743;SDS011;21867;52.012;4.324;2022-11-24T10:11:49;22.13;;;5.00;;
35743;SDS011;21867;52.012;4.324;2022-11-24T10:14:23;12.03;;;4.23;;
35743;SDS011;21867;52.012;4.324;2022-11-24T10:16:56;9.67;;;3.90;;
35743;SDS011;21867;52.012;4.324;2022-11-24T10:19:31;10.63;;;4.20;;
35743;SDS011;21867;52.012;4.324;2022-11-24T10:22:07;14.63;;;4.70;;
35743;SDS011;21867;52.012;4.324;2022-11-24T10:25:02;17.40;;;5.07;;
35743;SDS011;21867;52.012;4.324;2022-11-24T10:27:40;27.57;;;5.13;;
35743;SDS011;21867;52.012;4.324;2022-11-24T10:30:11;12.03;;;4.57;;
35743;SDS011;21867;52.012;4.324;2022-11-24T10:32:41;10.40;;;3.90;;
35743;SDS011;21867;52.012;4.324;2022-11-24T10:35:12;10.70;;;4.37;;
35743;SDS011;21867;52.012;4.324;2022-11-24T10:37:42;16.87;;;5.20;;
35743;SDS011;21867;52.012;4.324;2022-11-24T10:40:13;17.80;;;6.20;;
35743;SDS011;21867;52.012;4.324;2022-11-24T10:43:03;15.43;;;5.27;;
35743;SDS011;21867;52.012;4.324;2022-11-24T10:45:30;15.90;;;5.10;;
35743;SDS011;21867;52.012;4.324;2022-11-24T10:47:59;12.70;;;4.67;;
35743;SDS011;21867;52.012;4.324;2022-11-24T10:50:27;17.27;;;5.40;;
35743;SDS011;21867;52.012;4.324;2022-11-24T10:56:06;29.13;;;5.30;;
35743;SDS011;21867;52.012;4.324;2022-11-24T10:58:34;15.87;;;5.60;;
35743;SDS011;21867;52.012;4.324;2022-11-24T11:01:18;15.50;;;4.73;;
35743;SDS011;21867;52.012;4.324;2022-11-24T11:03:47;21.43;;;6.37;;
35743;SDS011;21867;52.012;4.324;2022-11-24T11:06:19;17.27;;;5.50;;
35743;SDS011;21867;52.012;4.324;2022-11-24T11:08:47;16.17;;;4.17;;
35743;SDS011;21867;52.012;4.324;2022-11-24T11:14:10;15.40;;;5.63;;
35743;SDS011;21867;52.012;4.324;2022-11-24T11:16:38;14.80;;;6.07;;
35743;SDS011;21867;52.012;4.324;2022-11-24T11:19:26;14.97;;;4.27;;
35743;SDS011;21867;52.012;4.324;2022-11-24T11:22:16;15.97;;;4.30;;
35743;SDS011;21867;52.012;4.324;2022-11-24T11:24:46;17.77;;;4.93;;
35743;SDS011;21867;52.012;4.324;2022-11-24T11:27:18;14.87;;;5.03;;
35743;SDS011;21867;52.012;4.324;2022-11-24T11:29:45;16.10;;;4.60;;
35743;SDS011;21867;52.012;4.324;2022-11-24T11:32:50;18.13;;;4.97;;
35743;SDS011;21867;52.012;4.324;2022-11-24T11:35:39;12.83;;;4.90;;
35743;SDS011;21867;52.012;4.324;2022-11-24T11:38:06;19.77;;;5.00;;
35743;SDS011;21867;52.012;4.324;2022-11-24T11:40:34;14.20;;;5.60;;
35743;SDS011;21867;52.012;4.324;2022-11-24T11:43:03;17.67;;;5.50;;
35743;SDS011;21867;52.012;4.324;2022-11-24T11:45:32;10.80;;;4.17;;
35743;SDS011;21867;52.012;4.324;2022-11-24T11:48:05;15.40;;;5.20;;
35743;SDS011;21867;52.012;4.324;2022-11-24T11:50:37;16.47;;;5.03;;
35743;SDS011;21867;52.012;4.324;2022-11-24T11:53:28;12.03;;;4.97;;
35743;SDS011;21867;52.012;4.324;2022-11-24T11:56:07;13.43;;;4.40;;
35743;SDS011;21867;52.012;4.324;2022-11-24T12:08:12;23.20;;;5.30;;
35743;SDS011;21867;52.012;4.324;2022-11-24T12:10:49;18.40;;;4.87;;
35743;SDS011;21867;52.012;4.324;2022-11-24T12:13:30;19.33;;;5.47;;
35743;SDS011;21867;52.012;4.324;2022-11-24T12:16:02;15.73;;;4.77;;
35743;SDS011;21867;52.012;4.324;2022-11-24T12:18:35;14.50;;;4.23;;
35743;SDS011;21867;52.012;4.324;2022-11-24T12:21:26;11.20;;;4.33;;
35743;SDS011;21867;52.012;4.324;2022-11-24T12:23:58;11.60;;;5.43;;
35743;SDS011;21867;52.012;4.324;2022-11-24T12:26:31;15.50;;;3.67;;
35743;SDS011;21867;52.012;4.324;2022-11-24T12:29:04;16.00;;;4.30;;
35743;SDS011;21867;52.012;4.324;2022-11-24T12:31:36;15.33;;;5.97;;
35743;SDS011;21867;52.012;4.324;2022-11-24T12:34:10;17.90;;;4.67;;
35743;SDS011;21867;52.012;4.324;2022-11-24T12:36:52;15.33;;;4.87;;
35743;SDS011;21867;52.012;4.324;2022-11-24T12:39:23;11.30;;;3.57;;
35743;SDS011;21867;52.012;4.324;2022-11-24T12:41:56;11.83;;;4.20;;
35743;SDS011;21867;52.012;4.324;2022-11-24T12:44:30;15.03;;;4.90;;
35743;SDS011;21867;52.012;4.324;2022-11-24T12:47:02;19.10;;;4.40;;
35743;SDS011;21867;52.012;4.324;2022-11-24T12:49:36;11.13;;;3.73;;
35743;SDS011;21867;52.012;4.324;2022-11-24T12:52:16;11.03;;;3.53;;
35743;SDS011;21867;52.012;4.324;2022-11-24T12:54:46;21.03;;;5.30;;
35743;SDS011;21867;52.012;4.324;2022-11-24T12:57:16;8.03;;;3.23;;
35743;SDS011;21867;52.012;4.324;2022-11-24T12:59:45;12.77;;;4.67;;
35743;SDS011;21867;52.012;4.324;2022-11-24T13:02:19;12.90;;;3.97;;
35743;SDS011;21867;52.012;4.324;2022-11-24T13:04:53;16.20;;;4.40;;
35743;SDS011;21867;52.012;4.324;2022-11-24T13:07:21;14.73;;;4.73;;
35743;SDS011;21867;52.012;4.324;2022-11-24T13:12:56;12.40;;;3.60;;
35743;SDS011;21867;52.012;4.324;2022-11-24T13:15:25;15.57;;;4.13;;
35743;SDS011;21867;52.012;4.324;2022-11-24T13:18:39;12.10;;;3.80;;
35743;SDS011;21867;52.012;4.324;2022-11-24T13:23:54;21.27;;;5.50;;
35743;SDS011;21867;52.012;4.324;2022-11-24T13:26:27;13.13;;;4.57;;
35743;SDS011;21867;52.012;4.324;2022-11-24T13:29:00;17.30;;;4.20;;
35743;SDS011;21867;52.012;4.324;2022-11-24T13:31:38;15.03;;;5.00;;
35743;SDS011;21867;52.012;4.324;2022-11-24T13:36:51;14.43;;;5.10;;
35743;SDS011;21867;52.012;4.324;2022-11-24T13:39:19;14.10;;;4.20;;
35743;SDS011;21867;52.012;4.324;2022-11-24T13:45:07;14.23;;;3.97;;
35743;SDS011;21867;52.012;4.324;2022-11-24T13:51:12;11.07;;;4.27;;
35743;SDS011;21867;52.012;4.324;2022-11-24T13:53:41;13.40;;;4.33;;
35743;SDS011;21867;52.012;4.324;2022-11-24T13:56:18;13.63;;;4.60;;
35743;SDS011;21867;52.012;4.324;2022-11-24T13:58:46;13.53;;;4.90;;
35743;SDS011;21867;52.012;4.324;2022-11-24T14:01:16;12.23;;;4.43;;
35743;SDS011;21867;52.012;4.324;2022-11-24T14:03:46;7.83;;;4.10;;
35743;SDS011;21867;52.012;4.324;2022-11-24T14:06:35;13.73;;;4.13;;
35743;SDS011;21867;52.012;4.324;2022-11-24T14:09:18;11.77;;;4.20;;
35743;SDS011;21867;52.012;4.324;2022-11-24T14:11:54;13.40;;;3.27;;
35743;SDS011;21867;52.012;4.324;2022-11-24T14:14:21;11.90;;;4.10;;
35743;SDS011;21867;52.012;4.324;2022-11-24T14:19:39;12.20;;;4.20;;
35743;SDS011;21867;52.012;4.324;2022-11-24T14:22:22;11.27;;;3.53;;
35743;SDS011;21867;52.012;4.324;2022-11-24T14:24:58;12.70;;;4.60;;
35743;SDS011;21867;52.012;4.324;2022-11-24T14:27:29;8.50;;;3.77;;
35743;SDS011;21867;52.012;4.324;2022-11-24T14:29:58;9.07;;;3.50;;
35743;SDS011;21867;52.012;4.324;2022-11-24T14:32:25;12.30;;;3.60;;
35743;SDS011;21867;52.012;4.324;2022-11-24T14:34:54;13.63;;;4.73;;
35743;SDS011;21867;52.012;4.324;2022-11-24T14:37:21;16.93;;;4.93;;
35743;SDS011;21867;52.012;4.324;2022-11-24T14:39:48;12.40;;;3.77;;
35743;SDS011;21867;52.012;4.324;2022-11-24T14:42:17;13.13;;;3.20;;
35743;SDS011;21867;52.012;4.324;2022-11-24T14:44:46;13.67;;;3.83;;
35743;SDS011;21867;52.012;4.324;2022-11-24T14:47:15;19.90;;;4.63;;
35743;SDS011;21867;52.012;4.324;2022-11-24T14:55:25;9.37;;;2.73;;
35743;SDS011;21867;52.012;4.324;2022-11-24T14:57:53;16.00;;;3.97;;
35743;SDS011;21867;52.012;4.324;2022-11-24T15:00:24;13.33;;;4.70;;
35743;SDS011;21867;52.012;4.324;2022-11-24T15:02:52;12.27;;;4.63;;
35743;SDS011;21867;52.012;4.324;2022-11-24T15:05:20;11.20;;;3.30;;
35743;SDS011;21867;52.012;4.324;2022-11-24T15:07:48;11.33;;;3.83;;
35743;SDS011;21867;52.012;4.324;2022-11-24T15:10:21;11.47;;;4.13;;
35743;SDS011;21867;52.012;4.324;2022-11-24T15:13:00;14.90;;;4.20;;
35743;SDS011;21867;52.012;4.324;2022-11-24T15:15:29;12.70;;;3.90;;
35743;SDS011;21867;52.012;4.324;2022-11-24T15:17:57;15.13;;;4.50;;
35743;SDS011;21867;52.012;4.324;2022-11-24T15:20:25;15.30;;;3.50;;
35743;SDS011;21867;52.012;4.324;2022-11-24T15:23:11;6.47;;;2.93;;
35743;SDS011;21867;52.012;4.324;2022-11-24T15:25:44;5.70;;;2.90;;
35743;SDS011;21867;52.012;4.324;2022-11-24T15:28:21;11.43;;;3.80;;
35743;SDS011;21867;52.012;4.324;2022-11-24T15:30:48;7.43;;;3.00;;
35743;SDS011;21867;52.012;4.324;2022-11-24T15:33:17;13.63;;;3.07;;
35743;SDS011;21867;52.012;4.324;2022-11-24T15:35:45;13.00;;;3.80;;
35743;SDS011;21867;52.012;4.324;2022-11-24T15:38:12;13.97;;;4.73;;
35743;SDS011;21867;52.012;4.324;2022-11-24T15:40:41;15.93;;;4.07;;
35743;SDS011;21867;52.012;4.324;2022-11-24T15:46:12;15.37;;;4.23;;
35743;SDS011;21867;52.012;4.324;2022-11-24T15:48:39;12.50;;;4.40;;
35743;SDS011;21867;52.012;4.324;2022-11-24T15:51:07;17.63;;;5.83;;
35743;SDS011;21867;52.012;4.324;2022-11-24T15:53:37;11.50;;;3.93;;
35743;SDS011;21867;52.012;4.324;2022-11-24T15:56:06;17.67;;;5.47;;
35743;SDS011;21867;52.012;4.324;2022-11-24T15:58:40;6.03;;;3.23;;
35743;SDS011;21867;52.012;4.324;2022-11-24T16:03:58;14.30;;;4.53;;
35743;SDS011;21867;52.012;4.324;2022-11-24T16:06:25;13.60;;;4.67;;
35743;SDS011;21867;52.012;4.324;2022-11-24T16:08:52;13.37;;;4.10;;